Stella Prima — PHEA — position and weather

sailwx.info

Track history (hours):
 
Tides and Currents Weather Stations Pressure Air Temp Water Temp Dewpoint Dewpoint Depression Visibility Wind Speed Wind Dir Waves Ship Positions

Stella Prima

Last reported at 2016-May-03 02:23 UTC. Time now 2016-May-04 19:19 UTC.
Position N 28°52' W 015°10'.

Length 100 m; beam 21 m.

Type: Cargo ship. MMSI: 246460000.

Date/timePositionNaut miles runAvg speedWind from/ knotsBaromVisibWave heightAir tempDewpointWater temp
2016-May-03 02:23N 28°52' W 015°10'910.2
2016-May-03 01:33N 28°44' W 015°13'1110.6
2016-May-03 00:33N 28°34' W 015°16'1010.1
2016-May-02 23:33N 28°25' W 015°20'1 1.1
2016-May-02 22:33N 28°26' W 015°20'1 1.0
2016-May-02 21:33N 28°27' W 015°20'2 1.6
2016-May-02 20:34N 28°25' W 015°20'1111.4
2016-May-02 19:33N 28°14' W 015°20'6 5.5
2016-May-02 18:32N 28°09' W 015°24'0 0.0
2016-May-02 17:32N 28°09' W 015°24'0 0.0
2016-May-02 16:32N 28°09' W 015°24'0 0.0
2016-May-02 15:32N 28°09' W 015°24'0 0.0
2016-May-02 14:32N 28°09' W 015°24'0 0.0
2016-May-02 13:26N 28°09' W 015°24'1 1.3
2016-May-02 12:33N 28°08' W 015°23'7 7.3
2016-May-02 11:33N 28°02' W 015°19'1010.1
2016-May-02 10:33N 27°52' W 015°17'1010.0
2016-May-02 09:33N 27°42' W 015°18'  
Track history (hours):
 
Tides and Currents Weather Stations Pressure Air Temp Water Temp Dewpoint Dewpoint Depression Visibility Wind Speed Wind Dir Waves Ship Positions

Stella Prima

Last reported at 2016-May-03 02:23 UTC. Time now 2016-May-04 19:19 UTC.
Position N 28°52' W 015°10'.

Length 100 m; beam 21 m.

Type: Cargo ship. MMSI: 246460000.

Date/timePositionNaut miles runAvg speedWind from/ knotsBaromVisibWave heightAir tempDewpointWater temp
2016-May-03 02:23N 28°52' W 015°10'910.2
2016-May-03 01:33N 28°44' W 015°13'1110.6
2016-May-03 00:33N 28°34' W 015°16'1010.1
2016-May-02 23:33N 28°25' W 015°20'1 1.1
2016-May-02 22:33N 28°26' W 015°20'1 1.0
2016-May-02 21:33N 28°27' W 015°20'2 1.6
2016-May-02 20:34N 28°25' W 015°20'1111.4
2016-May-02 19:33N 28°14' W 015°20'6 5.5
2016-May-02 18:32N 28°09' W 015°24'0 0.0
2016-May-02 17:32N 28°09' W 015°24'0 0.0
2016-May-02 16:32N 28°09' W 015°24'0 0.0
2016-May-02 15:32N 28°09' W 015°24'0 0.0
2016-May-02 14:32N 28°09' W 015°24'0 0.0
2016-May-02 13:26N 28°09' W 015°24'1 1.3
2016-May-02 12:33N 28°08' W 015°23'7 7.3
2016-May-02 11:33N 28°02' W 015°19'1010.1
2016-May-02 10:33N 27°52' W 015°17'1010.0
2016-May-02 09:33N 27°42' W 015°18'  

Dump ship's entire track history